createdAt,value
2022-10-23T00:01:37.432Z,93.30
2022-10-23T00:04:09.230Z,93.30
2022-10-23T00:06:36.945Z,93.20
2022-10-23T00:09:06.722Z,93.20
2022-10-23T00:11:34.801Z,93.30
2022-10-23T00:14:03.439Z,93.20
2022-10-23T00:16:30.606Z,93.30
2022-10-23T00:18:57.674Z,93.40
2022-10-23T00:21:24.919Z,93.40
2022-10-23T00:23:52.587Z,93.40
2022-10-23T00:26:20.209Z,93.30
2022-10-23T00:28:50.692Z,93.30
2022-10-23T00:31:18.704Z,93.30
2022-10-23T00:33:46.548Z,93.30
2022-10-23T00:36:16.043Z,93.30
2022-10-23T00:38:45.070Z,93.40
2022-10-23T00:41:24.437Z,93.40
2022-10-23T00:44:22.611Z,93.40
2022-10-23T00:46:49.872Z,93.40
2022-10-23T00:49:17.273Z,93.30
2022-10-23T00:51:48.797Z,93.40
2022-10-23T00:54:23.946Z,93.50
2022-10-23T00:56:57.191Z,93.50
2022-10-23T00:59:25.090Z,93.50
2022-10-23T01:01:52.396Z,93.50
2022-10-23T01:04:19.619Z,93.50
2022-10-23T01:07:09.894Z,93.60
2022-10-23T01:10:01.390Z,93.70
2022-10-23T01:13:03.808Z,93.70
2022-10-23T01:16:08.570Z,93.70
2022-10-23T01:18:35.492Z,93.70
2022-10-23T01:21:32.092Z,93.60
2022-10-23T01:24:19.663Z,93.60
2022-10-23T01:27:14.179Z,93.70
2022-10-23T01:29:54.472Z,93.70
2022-10-23T01:32:38.350Z,93.70
2022-10-23T01:35:19.022Z,93.80
2022-10-23T01:38:01.172Z,93.90
2022-10-23T01:40:37.546Z,93.90
2022-10-23T01:43:16.646Z,94.00
2022-10-23T01:45:50.862Z,94.00
2022-10-23T01:48:26.151Z,94.00
2022-10-23T01:50:58.026Z,94.00
2022-10-23T01:53:30.771Z,94.00
2022-10-23T01:56:00.853Z,94.00
2022-10-23T01:58:29.791Z,94.10
2022-10-23T02:01:01.177Z,94.10
2022-10-23T02:03:31.629Z,94.20
2022-10-23T02:05:58.714Z,94.30
2022-10-23T02:08:26.125Z,94.30
2022-10-23T02:11:15.059Z,94.40
2022-10-23T02:14:03.867Z,94.50
2022-10-23T02:16:54.471Z,94.60
2022-10-23T02:19:27.442Z,94.60
2022-10-23T02:22:16.213Z,94.60
2022-10-23T02:24:54.267Z,94.60
2022-10-23T02:27:38.922Z,94.60
2022-10-23T02:30:13.756Z,94.60
2022-10-23T02:32:47.931Z,94.60
2022-10-23T02:35:21.264Z,94.70
2022-10-23T02:37:56.684Z,94.70
2022-10-23T02:40:35.880Z,94.70
2022-10-23T02:43:12.699Z,94.80
2022-10-23T02:45:47.449Z,94.90
2022-10-23T02:48:23.302Z,95.00
2022-10-23T02:51:22.426Z,95.10
2022-10-23T02:54:25.801Z,95.00
2022-10-23T02:56:55.310Z,95.00
2022-10-23T02:59:44.367Z,95.00
2022-10-23T03:02:11.492Z,95.10
2022-10-23T03:04:42.344Z,95.10
2022-10-23T03:07:14.162Z,95.10
2022-10-23T03:09:42.905Z,95.20
2022-10-23T03:12:09.926Z,95.20
2022-10-23T03:14:37.444Z,95.20
2022-10-23T03:17:05.057Z,95.20
2022-10-23T03:19:32.028Z,95.20
2022-10-23T03:21:59.317Z,95.40
2022-10-23T03:24:26.362Z,95.50
2022-10-23T03:26:53.351Z,95.60
2022-10-23T03:29:29.307Z,95.70
2022-10-23T03:31:56.285Z,95.70
2022-10-23T03:34:23.376Z,95.80
2022-10-23T03:36:53.074Z,95.90
2022-10-23T03:39:21.114Z,95.90
2022-10-23T03:41:48.349Z,96.00
2022-10-23T03:44:16.979Z,96.00
2022-10-23T03:46:45.471Z,96.10
2022-10-23T03:49:12.520Z,96.10
2022-10-23T03:51:44.146Z,96.10
2022-10-23T03:54:11.723Z,96.20
2022-10-23T03:56:38.750Z,96.20
2022-10-23T03:59:07.937Z,96.30
2022-10-23T04:01:35.176Z,96.30
2022-10-23T04:04:02.387Z,96.30
2022-10-23T04:06:29.690Z,96.40
2022-10-23T04:08:58.437Z,96.40
2022-10-23T04:11:25.559Z,96.40
2022-10-23T04:13:52.852Z,96.50
2022-10-23T04:16:19.902Z,96.50
2022-10-23T04:18:46.957Z,96.50
2022-10-23T04:21:13.972Z,96.50
2022-10-23T04:23:41.029Z,96.50
2022-10-23T04:26:17.235Z,96.50
2022-10-23T04:28:44.219Z,96.50
2022-10-23T04:31:11.228Z,96.40
2022-10-23T04:33:41.152Z,96.40
2022-10-23T04:36:08.677Z,96.40
2022-10-23T04:38:35.796Z,96.30
2022-10-23T04:41:04.109Z,96.30
2022-10-23T04:43:31.117Z,96.30
2022-10-23T04:45:58.107Z,96.30
2022-10-23T04:48:28.343Z,96.30
2022-10-23T04:51:14.930Z,96.30
2022-10-23T04:54:10.999Z,96.30
2022-10-23T04:57:10.477Z,96.30
2022-10-23T05:00:14.632Z,96.20
2022-10-23T05:02:48.422Z,96.20
2022-10-23T05:05:17.665Z,96.20
2022-10-23T05:08:02.599Z,96.30
2022-10-23T05:10:41.634Z,96.30
2022-10-23T05:13:14.029Z,96.30
2022-10-23T05:15:41.166Z,96.30
2022-10-23T05:18:17.229Z,96.30
2022-10-23T05:20:47.629Z,96.30
2022-10-23T05:23:18.193Z,96.30
2022-10-23T05:25:54.226Z,96.30
2022-10-23T05:28:22.362Z,96.40
2022-10-23T05:30:50.042Z,96.40
2022-10-23T05:33:17.951Z,96.40
2022-10-23T05:35:45.465Z,96.40
2022-10-23T05:38:15.826Z,96.40
2022-10-23T05:40:43.889Z,96.50
2022-10-23T05:43:16.056Z,96.50
2022-10-23T05:45:49.549Z,96.50
2022-10-23T05:48:35.169Z,96.50
2022-10-23T05:51:10.913Z,96.40
2022-10-23T05:53:45.863Z,96.50
2022-10-23T05:56:22.199Z,96.50
2022-10-23T05:59:08.098Z,96.40
2022-10-23T06:01:49.216Z,96.30
2022-10-23T06:04:22.848Z,96.30
2022-10-23T06:07:12.569Z,96.30
2022-10-23T06:09:40.218Z,96.20
2022-10-23T06:12:07.451Z,96.20
2022-10-23T06:14:34.730Z,96.30
2022-10-23T06:17:01.713Z,96.30
2022-10-23T06:19:28.682Z,96.30
2022-10-23T06:21:57.629Z,96.30
2022-10-23T06:24:36.755Z,96.20
2022-10-23T06:27:09.609Z,96.20
2022-10-23T06:29:42.392Z,96.10
2022-10-23T06:32:09.664Z,96.10
2022-10-23T06:34:37.698Z,96.00
2022-10-23T06:37:07.159Z,96.00
2022-10-23T06:39:44.644Z,95.90
2022-10-23T06:42:37.802Z,95.90
2022-10-23T06:45:25.197Z,95.90
2022-10-23T06:48:12.319Z,96.20
2022-10-23T06:50:57.759Z,96.00
2022-10-23T06:53:35.953Z,96.00
2022-10-23T06:56:11.710Z,95.90
2022-10-23T06:58:40.145Z,95.80
2022-10-23T07:01:13.839Z,95.60
2022-10-23T07:03:43.079Z,95.50
2022-10-23T07:06:11.703Z,95.40
2022-10-23T07:08:39.113Z,95.30
2022-10-23T07:11:23.831Z,95.30
2022-10-23T07:13:51.296Z,95.10
2022-10-23T07:16:23.207Z,95.00
2022-10-23T07:19:01.799Z,94.80
2022-10-23T07:21:31.153Z,94.70
2022-10-23T07:24:28.087Z,94.20
2022-10-23T07:26:56.878Z,93.80
2022-10-23T07:29:24.915Z,93.70
2022-10-23T07:31:52.288Z,93.50
2022-10-23T07:34:45.385Z,93.30
2022-10-23T07:37:24.446Z,93.10
2022-10-23T07:39:51.452Z,93.00
2022-10-23T07:42:18.469Z,92.80
2022-10-23T07:44:46.082Z,92.50
2022-10-23T07:47:13.264Z,92.20
2022-10-23T07:49:43.775Z,91.80
2022-10-23T07:52:11.493Z,91.60
2022-10-23T07:54:58.386Z,91.50
2022-10-23T07:57:28.621Z,91.70
2022-10-23T08:00:06.286Z,91.30
2022-10-23T08:02:40.927Z,91.10
2022-10-23T08:05:10.139Z,91.00
2022-10-23T08:07:49.140Z,90.90
2022-10-23T08:10:17.146Z,90.70
2022-10-23T08:12:45.356Z,90.40
2022-10-23T08:15:13.495Z,90.10
2022-10-23T08:17:58.545Z,90.00
2022-10-23T08:20:47.432Z,90.10
2022-10-23T08:23:17.907Z,90.10
2022-10-23T08:25:46.150Z,90.00
2022-10-23T08:28:16.561Z,89.80
2022-10-23T08:30:52.867Z,89.40
2022-10-23T08:33:19.913Z,89.20
2022-10-23T08:35:47.000Z,88.90
2022-10-23T08:38:19.875Z,88.60
2022-10-23T08:40:48.901Z,87.90
2022-10-23T08:44:03.401Z,87.10
2022-10-23T08:46:40.808Z,87.00
2022-10-23T08:49:55.362Z,87.20
2022-10-23T08:52:29.988Z,86.80
2022-10-23T08:55:19.015Z,85.60
2022-10-23T08:57:59.180Z,85.70
2022-10-23T09:00:26.552Z,85.20
2022-10-23T09:02:54.603Z,85.00
2022-10-23T09:05:50.031Z,84.20
2022-10-23T09:08:36.142Z,83.80
2022-10-23T09:11:09.254Z,83.00
2022-10-23T09:13:58.317Z,83.10
2022-10-23T09:17:02.765Z,82.90
2022-10-23T09:19:31.377Z,82.30
2022-10-23T09:21:59.145Z,81.80
2022-10-23T09:24:31.496Z,82.30
2022-10-23T09:26:59.099Z,81.70
2022-10-23T09:29:32.969Z,80.80
2022-10-23T09:32:02.986Z,80.20
2022-10-23T09:34:32.396Z,80.30
2022-10-23T09:37:21.374Z,80.30
2022-10-23T09:39:48.969Z,80.00
2022-10-23T09:42:23.527Z,79.40
2022-10-23T09:44:53.496Z,79.00
2022-10-23T09:47:24.380Z,78.60
2022-10-23T09:49:56.967Z,78.40
2022-10-23T09:52:32.255Z,78.20
2022-10-23T09:55:01.762Z,77.70
2022-10-23T09:57:34.047Z,77.00
2022-10-23T10:00:15.639Z,76.60
2022-10-23T10:02:44.714Z,76.70
2022-10-23T10:05:45.165Z,76.80
2022-10-23T10:08:29.943Z,76.50
2022-10-23T10:11:20.096Z,76.70
2022-10-23T10:13:56.624Z,77.00
2022-10-23T10:19:14.545Z,76.20
2022-10-23T10:22:09.163Z,76.50
2022-10-23T10:24:51.714Z,76.80
2022-10-23T10:27:35.479Z,76.70
2022-10-23T10:30:13.055Z,76.90
2022-10-23T10:32:55.096Z,77.20
2022-10-23T10:35:46.815Z,76.90
2022-10-23T10:38:27.517Z,77.30
2022-10-23T10:41:14.625Z,77.10
2022-10-23T10:44:03.019Z,75.80
2022-10-23T10:46:53.339Z,75.40
2022-10-23T10:49:41.814Z,75.20
2022-10-23T10:52:31.898Z,75.10
2022-10-23T10:55:29.714Z,75.20
2022-10-23T10:58:03.329Z,75.30
2022-10-23T11:00:33.283Z,74.30
2022-10-23T11:03:29.507Z,73.90
2022-10-23T11:08:44.607Z,73.80
2022-10-23T11:11:36.758Z,72.90
2022-10-23T11:14:03.936Z,72.30
2022-10-23T11:16:36.041Z,71.60
2022-10-23T11:19:24.609Z,71.40
2022-10-23T11:22:17.349Z,71.90
2022-10-23T11:25:22.870Z,71.70
2022-10-23T11:28:10.370Z,71.50
2022-10-23T11:31:14.047Z,70.70
2022-10-23T11:33:56.327Z,70.60
2022-10-23T11:36:57.356Z,69.80
2022-10-23T11:39:27.899Z,70.00
2022-10-23T11:42:31.703Z,68.80
2022-10-23T11:44:58.714Z,69.60
2022-10-23T11:47:40.811Z,69.50
2022-10-23T11:50:07.758Z,70.20
2022-10-23T11:52:50.375Z,68.90
2022-10-23T11:55:20.061Z,68.70
2022-10-23T11:58:08.649Z,68.50
2022-10-23T12:00:40.412Z,68.60
2022-10-23T12:03:20.816Z,68.70
2022-10-23T12:08:31.281Z,67.70
2022-10-23T12:10:58.367Z,68.10
2022-10-23T12:13:37.717Z,67.60
2022-10-23T12:16:07.559Z,67.80
2022-10-23T12:18:46.633Z,67.60
2022-10-23T12:21:20.421Z,66.70
2022-10-23T12:23:59.745Z,66.90
2022-10-23T12:26:45.851Z,66.90
2022-10-23T12:29:42.909Z,66.60
2022-10-23T12:32:34.061Z,66.50
2022-10-23T12:35:38.523Z,67.00
2022-10-23T12:38:21.577Z,67.10
2022-10-23T12:41:18.099Z,67.30
2022-10-23T12:43:55.934Z,67.50
2022-10-23T12:46:40.852Z,67.20
2022-10-23T12:49:15.958Z,67.30
2022-10-23T12:51:43.358Z,67.00
2022-10-23T12:54:19.772Z,67.00
2022-10-23T12:56:47.694Z,66.50
2022-10-23T12:59:38.525Z,66.40
2022-10-23T13:02:23.500Z,66.50
2022-10-23T13:04:53.986Z,67.20
2022-10-23T13:07:25.592Z,67.60
2022-10-23T13:09:55.524Z,67.80
2022-10-23T13:12:30.967Z,67.90
2022-10-23T13:15:03.494Z,67.80
2022-10-23T13:17:53.125Z,67.40
2022-10-23T13:20:29.266Z,67.40
2022-10-23T13:23:01.926Z,67.70
2022-10-23T13:25:32.177Z,67.60
2022-10-23T13:28:17.705Z,66.70
2022-10-23T13:30:48.218Z,66.70
2022-10-23T13:33:21.231Z,66.90
2022-10-23T13:36:23.806Z,66.80
2022-10-23T13:39:13.287Z,67.00
2022-10-23T13:41:43.915Z,67.30
2022-10-23T13:44:13.406Z,68.00
2022-10-23T13:46:40.432Z,67.80
2022-10-23T13:49:07.417Z,67.70
2022-10-23T13:51:42.839Z,68.40
2022-10-23T13:54:16.616Z,68.60
2022-10-23T13:56:44.022Z,68.60
2022-10-23T13:59:12.466Z,68.70
2022-10-23T14:01:40.068Z,69.00
2022-10-23T14:04:07.895Z,69.00
2022-10-23T14:06:37.503Z,68.90
2022-10-23T14:09:14.959Z,68.70
2022-10-23T14:11:42.049Z,68.50
2022-10-23T14:14:09.113Z,68.30
2022-10-23T14:16:36.287Z,67.60
2022-10-23T14:19:03.590Z,67.90
2022-10-23T14:21:30.575Z,67.80
2022-10-23T14:23:57.884Z,67.90
2022-10-23T14:26:27.830Z,68.10
2022-10-23T14:28:57.550Z,68.30
2022-10-23T14:31:26.898Z,68.10
2022-10-23T14:33:56.226Z,67.90
2022-10-23T14:36:23.738Z,68.30
2022-10-23T14:38:55.903Z,67.90
2022-10-23T14:41:23.400Z,68.00
2022-10-23T14:43:50.555Z,68.20
2022-10-23T14:46:20.333Z,68.30
2022-10-23T14:48:50.945Z,67.90
2022-10-23T14:51:26.337Z,68.00
2022-10-23T14:53:59.812Z,67.60
2022-10-23T14:56:27.024Z,67.60
2022-10-23T14:58:54.399Z,67.80
2022-10-23T15:01:21.524Z,67.80
2022-10-23T15:03:54.702Z,68.40
2022-10-23T15:06:21.859Z,68.80
2022-10-23T15:08:57.610Z,68.90
2022-10-23T15:11:25.697Z,69.00
2022-10-23T15:13:54.748Z,69.10
2022-10-23T15:16:23.106Z,69.00
2022-10-23T15:18:50.708Z,69.00
2022-10-23T15:21:17.853Z,68.80
2022-10-23T15:23:46.113Z,68.80
2022-10-23T15:26:20.711Z,69.10
2022-10-23T15:28:52.238Z,69.30
2022-10-23T15:31:55.232Z,69.40
2022-10-23T15:34:24.374Z,69.80
2022-10-23T15:36:52.680Z,69.50
2022-10-23T15:39:22.388Z,69.60
2022-10-23T15:41:53.214Z,69.70
2022-10-23T15:44:22.677Z,69.80
2022-10-23T15:46:50.015Z,69.90
2022-10-23T15:49:18.046Z,70.10
2022-10-23T15:51:45.415Z,70.10
2022-10-23T15:54:18.890Z,70.30
2022-10-23T15:56:51.590Z,70.40
2022-10-23T15:59:20.532Z,70.50
2022-10-23T16:01:48.399Z,70.80
2022-10-23T16:04:16.275Z,70.90
2022-10-23T16:06:44.335Z,71.10
2022-10-23T16:09:11.365Z,71.40
2022-10-23T16:11:41.428Z,71.60
2022-10-23T16:14:12.904Z,71.90
2022-10-23T16:16:40.142Z,72.30
2022-10-23T16:19:07.213Z,72.60
2022-10-23T16:21:36.102Z,72.80
2022-10-23T16:24:05.967Z,73.10
2022-10-23T16:26:33.659Z,73.30
2022-10-23T16:29:03.398Z,73.60
2022-10-23T16:31:30.460Z,73.90
2022-10-23T16:34:01.685Z,74.10
2022-10-23T16:36:29.442Z,74.40
2022-10-23T16:39:20.307Z,74.80
2022-10-23T16:42:06.112Z,75.00
2022-10-23T16:44:50.167Z,75.20
2022-10-23T16:47:17.992Z,75.40
2022-10-23T16:49:45.699Z,75.60
2022-10-23T16:52:12.715Z,75.80
2022-10-23T16:54:40.175Z,75.90
2022-10-23T16:57:07.293Z,76.10
2022-10-23T16:59:34.526Z,76.40
2022-10-23T17:02:01.648Z,76.60
2022-10-23T17:04:28.753Z,76.70
2022-10-23T17:06:55.794Z,76.90
2022-10-23T17:09:23.657Z,77.10
2022-10-23T17:11:53.107Z,77.20
2022-10-23T17:14:21.247Z,77.40
2022-10-23T17:16:51.073Z,77.60
2022-10-23T17:22:10.852Z,78.10
2022-10-23T17:24:40.152Z,78.40
2022-10-23T17:27:07.285Z,78.60
2022-10-23T17:29:34.584Z,78.90
2022-10-23T17:32:01.592Z,79.40
2022-10-23T17:34:28.629Z,80.20
2022-10-23T17:36:56.186Z,79.90
2022-10-23T17:39:26.217Z,80.20
2022-10-23T17:41:54.151Z,80.50
2022-10-23T17:44:21.769Z,80.60
2022-10-23T17:46:53.639Z,80.80
2022-10-23T17:49:21.822Z,81.00
2022-10-23T17:51:55.415Z,81.00
2022-10-23T17:54:22.949Z,81.10
2022-10-23T17:56:50.060Z,81.20
2022-10-23T17:59:21.387Z,81.10
2022-10-23T18:01:49.509Z,81.20
2022-10-23T18:04:18.745Z,81.40
2022-10-23T18:06:48.435Z,81.60
2022-10-23T18:09:15.532Z,82.00
2022-10-23T18:11:48.240Z,82.20
2022-10-23T18:14:17.119Z,82.50
2022-10-23T18:16:45.712Z,82.60
2022-10-23T18:19:13.845Z,82.90
2022-10-23T18:21:41.032Z,83.10
2022-10-23T18:24:08.069Z,83.30
2022-10-23T18:26:35.447Z,83.50
2022-10-23T18:29:07.357Z,83.90
2022-10-23T18:31:37.131Z,84.20
2022-10-23T18:34:07.715Z,84.50
2022-10-23T18:36:40.626Z,84.80
2022-10-23T18:39:12.452Z,85.00
2022-10-23T18:41:41.773Z,85.50
2022-10-23T18:44:09.819Z,85.90
2022-10-23T18:46:37.404Z,86.00
2022-10-23T18:49:05.039Z,86.20
2022-10-23T18:51:33.901Z,86.50
2022-10-23T18:54:03.361Z,86.70
2022-10-23T18:56:30.702Z,86.80
2022-10-23T18:59:00.176Z,87.20
2022-10-23T19:01:28.232Z,87.40
2022-10-23T19:06:30.225Z,87.70
2022-10-23T19:08:57.697Z,87.90
2022-10-23T19:11:27.339Z,88.10
2022-10-23T19:13:54.863Z,88.30
2022-10-23T19:16:24.157Z,88.70
2022-10-23T19:19:10.693Z,89.10
2022-10-23T19:21:39.793Z,89.50
2022-10-23T19:24:10.830Z,89.80
2022-10-23T19:26:39.915Z,90.00
2022-10-23T19:29:09.174Z,90.00
2022-10-23T19:31:36.294Z,90.10
2022-10-23T19:34:03.497Z,90.10
2022-10-23T19:36:31.738Z,90.20
2022-10-23T19:38:58.839Z,90.10
2022-10-23T19:41:25.852Z,90.10
2022-10-23T19:43:52.891Z,90.10
2022-10-23T19:46:19.980Z,90.30
2022-10-23T19:48:46.973Z,90.60
2022-10-23T19:51:14.194Z,90.60
2022-10-23T19:53:42.693Z,90.50
2022-10-23T19:56:11.773Z,90.30
2022-10-23T19:58:39.140Z,90.10
2022-10-23T20:01:21.421Z,90.00
2022-10-23T20:03:48.891Z,89.80
2022-10-23T20:06:42.241Z,89.90
2022-10-23T20:09:09.974Z,90.10
2022-10-23T20:11:39.462Z,90.10
2022-10-23T20:14:07.367Z,89.90
2022-10-23T20:16:37.114Z,90.10
2022-10-23T20:19:10.338Z,90.30
2022-10-23T20:21:39.123Z,90.60
2022-10-23T20:24:06.893Z,90.90
2022-10-23T20:26:34.437Z,90.90
2022-10-23T20:29:01.571Z,91.00
2022-10-23T20:31:28.632Z,91.10
2022-10-23T20:33:56.778Z,91.10
2022-10-23T20:36:32.624Z,91.10
2022-10-23T20:39:03.406Z,91.10
2022-10-23T20:41:33.143Z,90.80
2022-10-23T20:44:00.767Z,90.70
2022-10-23T20:46:27.996Z,90.60
2022-10-23T20:48:55.026Z,90.70
2022-10-23T20:51:24.039Z,90.80
2022-10-23T20:53:52.159Z,90.90
2022-10-23T20:56:20.644Z,91.00
2022-10-23T20:58:47.775Z,91.10
2022-10-23T21:01:17.643Z,91.20
2022-10-23T21:03:50.053Z,91.60
2022-10-23T21:06:19.229Z,91.70
2022-10-23T21:08:46.292Z,91.80
2022-10-23T21:11:15.977Z,91.80
2022-10-23T21:13:44.197Z,91.80
2022-10-23T21:16:20.881Z,91.60
2022-10-23T21:18:50.719Z,91.50
2022-10-23T21:21:20.177Z,91.50
2022-10-23T21:23:49.307Z,91.60
2022-10-23T21:26:18.185Z,91.60
2022-10-23T21:28:55.776Z,91.90
2022-10-23T21:31:33.609Z,92.20
2022-10-23T21:34:00.660Z,92.20
2022-10-23T21:36:29.869Z,92.40
2022-10-23T21:39:01.504Z,92.40
2022-10-23T21:41:34.460Z,92.50
2022-10-23T21:44:04.688Z,92.50
2022-10-23T21:46:33.780Z,92.60
2022-10-23T21:49:01.259Z,92.90
2022-10-23T21:51:37.182Z,93.00
2022-10-23T21:54:06.270Z,93.00
2022-10-23T21:56:38.262Z,92.80
2022-10-23T21:59:13.443Z,92.70
2022-10-23T22:01:43.171Z,92.60
2022-10-23T22:04:14.985Z,92.70
2022-10-23T22:06:43.521Z,92.80
2022-10-23T22:09:13.713Z,93.00
2022-10-23T22:11:41.200Z,93.20
2022-10-23T22:14:08.274Z,93.40
2022-10-23T22:16:35.247Z,93.40
2022-10-23T22:19:02.572Z,93.50
2022-10-23T22:21:30.835Z,93.60
2022-10-23T22:24:00.126Z,93.70
2022-10-23T22:26:31.477Z,93.90
2022-10-23T22:29:04.804Z,94.00
2022-10-23T22:31:33.340Z,94.10
2022-10-23T22:34:13.023Z,94.10
2022-10-23T22:36:48.748Z,94.10
2022-10-23T22:39:15.970Z,93.90
2022-10-23T22:41:43.680Z,94.10
2022-10-23T22:44:11.765Z,94.20
2022-10-23T22:46:39.142Z,94.40
2022-10-23T22:51:39.725Z,94.30
2022-10-23T22:54:07.141Z,94.40
2022-10-23T22:56:34.561Z,94.40
2022-10-23T22:59:01.938Z,94.60
2022-10-23T23:01:36.822Z,94.60
2022-10-23T23:04:26.093Z,94.70
2022-10-23T23:06:51.200Z,94.90
2022-10-23T23:09:18.827Z,94.90
2022-10-23T23:11:51.746Z,95.00
2022-10-23T23:14:23.446Z,95.10
2022-10-23T23:16:53.124Z,95.20
2022-10-23T23:19:22.483Z,95.20
2022-10-23T23:21:50.405Z,95.20
2022-10-23T23:24:17.629Z,95.30
2022-10-23T23:26:44.557Z,95.20
2022-10-23T23:29:11.900Z,95.10
2022-10-23T23:31:39.445Z,95.10
2022-10-23T23:34:06.420Z,95.20
2022-10-23T23:36:34.051Z,95.40
2022-10-23T23:39:01.712Z,95.50
2022-10-23T23:41:29.661Z,95.80
2022-10-23T23:43:58.455Z,95.90
2022-10-23T23:46:26.874Z,96.10
2022-10-23T23:48:53.946Z,96.20
2022-10-23T23:51:23.664Z,96.20
2022-10-23T23:53:51.261Z,96.30
2022-10-23T23:56:18.970Z,96.30
2022-10-23T23:58:45.943Z,96.60
